createdAt,value
2022-09-30T00:01:59.953Z,7.85
2022-09-30T00:04:27.980Z,9.88
2022-09-30T00:06:55.985Z,9.65
2022-09-30T00:09:24.387Z,9.02
2022-09-30T00:11:52.561Z,9.20
2022-09-30T00:14:23.915Z,10.00
2022-09-30T00:16:53.562Z,10.10
2022-09-30T00:19:21.855Z,11.35
2022-09-30T00:21:49.926Z,11.65
2022-09-30T00:24:20.125Z,13.98
2022-09-30T00:26:48.349Z,12.52
2022-09-30T00:29:16.412Z,12.02
2022-09-30T00:31:46.123Z,12.63
2022-09-30T00:34:14.189Z,12.13
2022-09-30T00:36:49.367Z,10.57
2022-09-30T00:39:19.687Z,10.90
2022-09-30T00:41:52.537Z,11.98
2022-09-30T00:44:56.671Z,12.27
2022-09-30T00:47:31.680Z,13.05
2022-09-30T00:50:12.939Z,13.55
2022-09-30T00:52:41.934Z,11.90
2022-09-30T00:55:22.474Z,13.73
2022-09-30T00:57:50.709Z,12.18
2022-09-30T01:00:18.914Z,13.10
2022-09-30T01:02:50.806Z,12.43
2022-09-30T01:05:18.913Z,13.77
2022-09-30T01:07:49.666Z,14.85
2022-09-30T01:10:19.122Z,13.80
2022-09-30T01:12:47.177Z,13.25
2022-09-30T01:15:33.591Z,16.25
2022-09-30T01:18:25.352Z,14.40
2022-09-30T01:21:30.122Z,17.98
2022-09-30T01:24:35.013Z,15.65
2022-09-30T01:27:13.330Z,13.85
2022-09-30T01:30:12.397Z,15.02
2022-09-30T01:33:04.753Z,15.45
2022-09-30T01:35:39.007Z,13.30
2022-09-30T01:38:29.423Z,14.77
2022-09-30T01:41:30.414Z,13.38
2022-09-30T01:44:24.232Z,14.75
2022-09-30T01:46:55.004Z,17.60
2022-09-30T01:49:40.033Z,15.07
2022-09-30T01:52:26.555Z,16.83
2022-09-30T01:55:03.007Z,15.25
2022-09-30T01:57:59.310Z,16.98
2022-09-30T02:00:29.075Z,15.85
2022-09-30T02:03:12.849Z,14.48
2022-09-30T02:05:52.784Z,14.68
2022-09-30T02:08:29.825Z,16.13
2022-09-30T02:11:20.487Z,15.38
2022-09-30T02:14:03.572Z,13.57
2022-09-30T02:17:04.752Z,15.85
2022-09-30T02:19:44.857Z,19.75
2022-09-30T02:22:45.052Z,15.40
2022-09-30T02:25:23.770Z,14.25
2022-09-30T02:28:00.884Z,12.00
2022-09-30T02:30:30.181Z,13.23
2022-09-30T09:40:37.225Z,12.10
2022-09-30T09:43:38.177Z,8.18
2022-09-30T09:46:45.357Z,10.88
2022-09-30T09:49:24.806Z,8.98
2022-09-30T09:52:13.264Z,7.78
2022-09-30T09:54:44.613Z,8.38
2022-09-30T09:57:16.756Z,7.88
2022-09-30T10:00:44.697Z,8.23
2022-09-30T10:03:17.086Z,7.38
2022-09-30T10:05:48.248Z,7.88
2022-09-30T10:08:21.590Z,10.80
2022-09-30T10:10:56.114Z,7.72
2022-09-30T10:13:30.574Z,9.10
2022-09-30T10:16:02.257Z,7.88
2022-09-30T10:18:35.848Z,8.15
2022-09-30T10:21:07.067Z,8.98
2022-09-30T10:23:40.525Z,9.75
2022-09-30T10:29:28.146Z,8.65
2022-09-30T10:31:59.987Z,10.40
2022-09-30T10:34:32.762Z,9.93
2022-09-30T10:37:09.166Z,9.30
2022-09-30T10:39:41.305Z,8.18
2022-09-30T10:42:10.540Z,10.77
2022-09-30T10:44:47.316Z,7.75
2022-09-30T10:47:20.413Z,9.93
2022-09-30T10:49:53.631Z,8.77
2022-09-30T10:52:28.954Z,10.90
2022-09-30T10:54:59.634Z,9.45
2022-09-30T10:57:35.163Z,10.57
2022-09-30T11:00:09.953Z,8.85
2022-09-30T11:02:50.509Z,8.95
2022-09-30T11:05:25.753Z,10.95
2022-09-30T11:08:16.852Z,9.75
2022-09-30T11:11:11.088Z,10.90
2022-09-30T11:16:48.690Z,11.85
2022-09-30T11:19:34.357Z,13.10
2022-09-30T11:22:27.437Z,12.25
2022-09-30T11:24:58.842Z,11.35
2022-09-30T11:27:29.623Z,10.70
2022-09-30T11:30:25.133Z,10.98
2022-09-30T11:33:07.518Z,11.43
2022-09-30T11:35:56.206Z,10.50
2022-09-30T11:38:39.200Z,14.73
2022-09-30T11:41:22.921Z,11.75
2022-09-30T11:43:58.927Z,13.13
2022-09-30T11:46:47.382Z,11.52
2022-09-30T11:49:51.977Z,13.68
2022-09-30T11:52:48.174Z,16.63
2022-09-30T11:55:52.960Z,30.63
2022-09-30T11:58:46.827Z,33.50
2022-09-30T12:01:29.295Z,37.53
2022-09-30T12:04:13.720Z,28.67
2022-09-30T12:06:56.664Z,29.58
2022-09-30T12:09:37.964Z,45.35
2022-09-30T12:12:16.772Z,44.40
2022-09-30T12:15:11.003Z,36.97
2022-09-30T12:17:46.487Z,36.78
2022-09-30T12:20:20.833Z,29.05
2022-09-30T12:22:51.760Z,25.40
2022-09-30T12:25:41.309Z,23.50
2022-09-30T12:28:43.681Z,22.00
2022-09-30T12:31:20.793Z,23.27
2022-09-30T12:34:22.042Z,19.95
2022-09-30T12:36:57.687Z,21.05
2022-09-30T12:39:50.322Z,32.67
2022-09-30T12:42:34.927Z,24.65
2022-09-30T12:45:15.164Z,24.08
2022-09-30T12:47:55.906Z,24.88
2022-09-30T12:52:58.173Z,22.20
2022-09-30T12:55:40.041Z,21.27
2022-09-30T12:58:20.999Z,25.42
2022-09-30T13:01:06.979Z,18.73
2022-09-30T13:04:09.882Z,20.23
2022-09-30T13:06:47.167Z,19.92
2022-09-30T13:09:18.094Z,20.77
2022-09-30T13:12:14.103Z,19.40
2022-09-30T13:14:44.165Z,20.73
2022-09-30T13:17:12.448Z,18.13
2022-09-30T13:19:47.185Z,20.85
2022-09-30T13:22:31.031Z,20.65
2022-09-30T13:25:00.153Z,16.95
2022-09-30T13:27:36.686Z,18.70
2022-09-30T13:30:18.333Z,15.40
2022-09-30T13:33:07.252Z,18.45
2022-09-30T13:35:52.234Z,18.42
2022-09-30T13:38:24.960Z,18.08
2022-09-30T13:41:05.366Z,20.65
2022-09-30T13:43:48.128Z,19.75
2022-09-30T13:46:25.178Z,22.00
2022-09-30T13:49:04.230Z,22.73
2022-09-30T13:51:34.846Z,22.67
2022-09-30T13:54:25.275Z,20.42
2022-09-30T13:56:56.286Z,27.33
2022-09-30T13:59:48.323Z,23.50
2022-09-30T14:02:34.727Z,24.23
2022-09-30T14:05:18.103Z,26.33
2022-09-30T14:08:28.509Z,22.10
2022-09-30T14:11:31.634Z,20.73
2022-09-30T14:14:19.157Z,21.40
2022-09-30T14:17:20.723Z,22.63
2022-09-30T14:19:59.163Z,19.55
2022-09-30T14:22:30.684Z,23.48
2022-09-30T14:24:59.050Z,26.38
2022-09-30T14:28:01.649Z,23.75
2022-09-30T14:30:35.472Z,23.75
2022-09-30T14:33:25.720Z,23.05
2022-09-30T14:38:46.857Z,30.17
2022-09-30T14:41:21.329Z,43.60
2022-09-30T14:43:54.588Z,49.05
2022-09-30T14:46:36.069Z,82.50
2022-09-30T14:49:11.465Z,104.28
2022-09-30T14:51:45.234Z,104.75
2022-09-30T14:54:27.150Z,61.63
2022-09-30T14:56:55.980Z,56.08
2022-09-30T14:59:27.953Z,52.63
2022-09-30T15:02:02.229Z,46.97
2022-09-30T15:04:33.737Z,42.20
2022-09-30T15:07:06.211Z,37.38
2022-09-30T15:09:48.639Z,41.95
2022-09-30T15:12:23.557Z,37.70
2022-09-30T15:15:02.283Z,35.58
2022-09-30T15:17:38.404Z,39.55
2022-09-30T15:20:40.031Z,49.75
2022-09-30T15:23:19.488Z,53.20
2022-09-30T15:25:48.758Z,50.65
2022-09-30T15:32:03.722Z,46.53
2022-09-30T15:34:32.198Z,40.33
2022-09-30T15:37:15.077Z,36.80
2022-09-30T15:40:06.574Z,38.45
2022-09-30T15:42:52.449Z,35.17
2022-09-30T15:45:40.206Z,35.22
2022-09-30T15:48:28.438Z,34.33
2022-09-30T15:51:01.881Z,33.88
2022-09-30T15:53:41.308Z,33.67
2022-09-30T15:56:38.451Z,32.35
2022-09-30T15:59:09.213Z,36.75
2022-09-30T16:01:43.651Z,34.95
2022-09-30T16:04:17.937Z,34.65
2022-09-30T16:07:01.371Z,34.83
2022-09-30T16:09:38.980Z,36.03
2022-09-30T16:12:21.063Z,35.30
2022-09-30T16:15:00.866Z,34.60
2022-09-30T16:17:38.615Z,34.47
2022-09-30T16:20:22.152Z,34.22
2022-09-30T16:22:52.169Z,31.73
2022-09-30T16:25:32.880Z,36.53
2022-09-30T16:28:03.634Z,40.20
2022-09-30T16:30:32.910Z,36.60
2022-09-30T16:33:06.954Z,35.03
2022-09-30T16:35:35.381Z,40.35
2022-09-30T16:38:06.327Z,37.97
2022-09-30T16:40:39.935Z,37.17
2022-09-30T16:43:10.654Z,43.25
2022-09-30T16:45:40.482Z,46.13
2022-09-30T16:48:19.457Z,53.00
2022-09-30T16:51:15.174Z,55.03
2022-09-30T16:53:46.342Z,49.45
2022-09-30T16:56:20.088Z,52.78
2022-09-30T16:58:48.274Z,54.42
2022-09-30T17:01:24.411Z,51.55
2022-09-30T17:03:56.442Z,55.45
2022-09-30T17:06:30.661Z,46.63
2022-09-30T17:08:59.547Z,62.42
2022-09-30T17:11:33.860Z,47.27
2022-09-30T17:14:03.387Z,51.35
2022-09-30T17:16:31.697Z,44.95
2022-09-30T17:19:00.067Z,44.20
2022-09-30T17:21:29.035Z,45.75
2022-09-30T17:23:57.117Z,40.88
2022-09-30T17:26:25.229Z,39.55
2022-09-30T17:28:55.412Z,46.53
2022-09-30T17:31:25.819Z,45.17
2022-09-30T17:33:53.703Z,50.03
2022-09-30T17:36:21.928Z,44.38
2022-09-30T17:38:54.327Z,38.40
2022-09-30T17:41:41.924Z,38.97
2022-09-30T17:44:09.910Z,42.45
2022-09-30T17:46:44.465Z,42.22
2022-09-30T17:49:15.508Z,43.17
2022-09-30T17:51:43.729Z,44.53
2022-09-30T17:54:13.739Z,41.10
2022-09-30T17:56:44.719Z,40.15
2022-09-30T17:59:12.686Z,40.22
2022-09-30T18:01:43.854Z,42.92
2022-09-30T18:04:12.276Z,37.50
2022-09-30T18:06:40.199Z,37.20
2022-09-30T18:09:08.197Z,37.03
2022-09-30T18:11:42.820Z,35.58
2022-09-30T18:14:12.776Z,30.55
2022-09-30T18:16:41.117Z,37.20
2022-09-30T18:19:11.313Z,32.90
2022-09-30T18:21:39.580Z,37.38
2022-09-30T18:24:08.200Z,35.17
2022-09-30T18:26:36.331Z,30.73
2022-09-30T18:29:05.837Z,32.45
2022-09-30T18:31:38.278Z,31.98
2022-09-30T18:34:08.922Z,32.65
2022-09-30T18:36:37.733Z,34.00
2022-09-30T18:39:05.920Z,33.97
2022-09-30T18:41:36.370Z,33.17
2022-09-30T18:44:05.345Z,31.38
2022-09-30T18:46:33.289Z,31.92
2022-09-30T18:49:02.499Z,30.63
2022-09-30T18:51:31.117Z,32.17
2022-09-30T18:54:01.870Z,33.20
2022-09-30T18:56:33.704Z,32.28
2022-09-30T19:01:37.359Z,32.80
2022-09-30T19:04:06.379Z,32.58
2022-09-30T19:06:35.448Z,29.63
2022-09-30T19:09:03.399Z,34.97
2022-09-30T19:11:32.893Z,38.60
2022-09-30T19:16:38.669Z,26.92
2022-09-30T19:19:11.092Z,28.40
2022-09-30T19:21:40.434Z,32.58
2022-09-30T19:24:09.886Z,31.00
2022-09-30T19:26:40.353Z,32.20
2022-09-30T19:29:10.355Z,29.88
2022-09-30T19:31:38.502Z,31.98
2022-09-30T19:34:06.980Z,32.20
2022-09-30T19:36:45.030Z,31.98
2022-09-30T19:39:17.603Z,28.88
2022-09-30T19:41:47.143Z,30.65
2022-09-30T19:44:20.781Z,31.80
2022-09-30T19:46:52.644Z,30.63
2022-09-30T19:49:22.241Z,31.45
2022-09-30T19:54:37.631Z,27.90
2022-09-30T19:57:09.225Z,29.88
2022-09-30T19:59:37.330Z,28.27
2022-09-30T20:02:05.317Z,28.63
2022-09-30T20:04:34.862Z,30.48
2022-09-30T20:07:02.993Z,29.95
2022-09-30T20:09:31.808Z,30.60
2022-09-30T20:11:59.819Z,30.58
2022-09-30T20:14:46.453Z,27.08
2022-09-30T20:17:14.429Z,28.23
2022-09-30T20:19:42.414Z,26.55
2022-09-30T20:22:12.088Z,27.17
2022-09-30T20:24:40.208Z,27.13
2022-09-30T20:27:09.036Z,22.27
2022-09-30T20:29:38.208Z,25.73
2022-09-30T20:32:06.334Z,26.67
2022-09-30T20:34:38.567Z,23.50
2022-09-30T20:37:06.982Z,23.13
2022-09-30T20:39:35.975Z,23.60
2022-09-30T20:42:03.993Z,24.35
2022-09-30T20:44:33.868Z,22.38
2022-09-30T20:47:03.347Z,23.98
2022-09-30T20:49:31.357Z,26.13
2022-09-30T20:52:07.613Z,25.50
2022-09-30T20:54:38.885Z,25.08
2022-09-30T20:57:07.949Z,23.10
2022-09-30T21:02:05.158Z,24.25
2022-09-30T21:04:33.978Z,26.13
2022-09-30T21:07:04.528Z,23.60
2022-09-30T21:09:35.269Z,22.10
2022-09-30T21:12:03.263Z,21.88
2022-09-30T21:14:33.618Z,23.42
2022-09-30T21:17:01.553Z,24.38
2022-09-30T21:19:29.616Z,25.73
2022-09-30T21:21:59.540Z,22.20
2022-09-30T21:24:27.904Z,21.88
2022-09-30T21:26:56.601Z,26.60
2022-09-30T21:30:15.533Z,20.57
2022-09-30T21:32:46.569Z,22.25
2022-09-30T21:35:14.842Z,23.27
2022-09-30T21:37:43.908Z,20.65
2022-09-30T21:40:12.844Z,21.20
2022-09-30T21:42:40.818Z,19.50
2022-09-30T21:45:10.578Z,21.33
2022-09-30T21:47:38.516Z,20.77
2022-09-30T21:50:07.171Z,19.35
2022-09-30T21:52:35.349Z,17.23
2022-09-30T21:55:03.617Z,17.33
2022-09-30T21:57:31.569Z,19.40
2022-09-30T22:00:00.454Z,16.98
2022-09-30T22:02:28.378Z,15.43
2022-09-30T22:04:56.397Z,17.10
2022-09-30T22:07:25.825Z,16.48
2022-09-30T22:09:53.893Z,18.42
2022-09-30T22:12:22.997Z,16.83
2022-09-30T22:14:52.064Z,18.02
2022-09-30T22:17:20.017Z,20.27
2022-09-30T22:19:48.473Z,16.75
2022-09-30T22:22:17.601Z,17.60
2022-09-30T22:24:45.525Z,19.42
2022-09-30T22:27:14.698Z,17.80
2022-09-30T22:29:44.614Z,15.07
2022-09-30T22:32:12.655Z,16.73
2022-09-30T22:34:59.035Z,14.70
2022-09-30T22:37:45.250Z,13.68
2022-09-30T22:40:13.343Z,13.73
2022-09-30T22:42:41.329Z,14.82
2022-09-30T22:45:09.812Z,12.57
2022-09-30T22:47:37.942Z,13.65
2022-09-30T22:50:06.200Z,12.52
2022-09-30T22:52:34.167Z,12.93
2022-09-30T22:55:02.498Z,12.18
2022-09-30T22:57:49.807Z,14.00
2022-09-30T23:00:18.678Z,14.38
2022-09-30T23:02:46.813Z,13.45
2022-09-30T23:05:29.455Z,12.60
2022-09-30T23:07:57.440Z,13.02
2022-09-30T23:10:25.371Z,15.80
2022-09-30T23:12:53.583Z,13.25
2022-09-30T23:15:21.510Z,14.57
2022-09-30T23:17:49.574Z,16.27
2022-09-30T23:20:18.799Z,13.20
2022-09-30T23:22:47.626Z,12.60
2022-09-30T23:25:15.660Z,14.77
2022-09-30T23:27:49.587Z,14.48
2022-09-30T23:30:17.849Z,12.80
2022-09-30T23:32:45.733Z,12.20
2022-09-30T23:35:34.209Z,14.57
2022-09-30T23:38:02.186Z,13.55
2022-09-30T23:40:31.601Z,15.05
2022-09-30T23:42:59.679Z,12.30
2022-09-30T23:45:27.653Z,15.07
2022-09-30T23:47:57.066Z,12.77
2022-09-30T23:50:27.585Z,13.88
2022-09-30T23:52:55.566Z,13.82
2022-09-30T23:55:23.525Z,12.23
2022-09-30T23:57:51.776Z,13.68
